Alder Grove, Washington
Current Conditions -  °F | °C
As of 9:35 AM on Monday 22 Dec 2014 (Local Time) from KSHN Reporting Station
Overcast Overcast  
Wind Chill: 37°   Ceiling: 1400
Heat Index: 40°   Visibility: 10mi
Dew Point: 39°   Wind: 5mph
Humidity: 97%   Direction: 340°NNW
Pressure: 30.33"   Gusts: NA
Location:  47.555°N, 123.746°W
Report Text: KSHN 221735Z AUTO 34004KT 10SM OVC014 04/04 A3033 RMK AO2 T00440039
Loading
Personal Weather Stations






























Interactive Weather Map New forecast layout! Learn more

10-Day Weather Forecast

Advertisements
Track Severe Weather on mobile